sensor_id;sensor_type;location;lat;lon;timestamp;P1;durP1;ratioP1;P2;durP2;ratioP2
22017;SDS011;11173;51.050;7.108;2022-12-18T00:07:11;7.55;;;6.60;;
22017;SDS011;11173;51.050;7.108;2022-12-18T00:17:12;9.20;;;7.30;;
22017;SDS011;11173;51.050;7.108;2022-12-18T00:27:12;9.27;;;7.60;;
22017;SDS011;11173;51.050;7.108;2022-12-18T00:37:12;9.95;;;7.55;;
22017;SDS011;11173;51.050;7.108;2022-12-18T00:47:13;8.55;;;6.68;;
22017;SDS011;11173;51.050;7.108;2022-12-18T00:57:13;11.52;;;6.95;;
22017;SDS011;11173;51.050;7.108;2022-12-18T01:07:13;9.55;;;7.20;;
22017;SDS011;11173;51.050;7.108;2022-12-18T01:17:14;11.35;;;8.35;;
22017;SDS011;11173;51.050;7.108;2022-12-18T01:27:14;8.68;;;7.38;;
22017;SDS011;11173;51.050;7.108;2022-12-18T01:37:15;9.55;;;6.95;;
22017;SDS011;11173;51.050;7.108;2022-12-18T01:47:15;8.00;;;6.75;;
22017;SDS011;11173;51.050;7.108;2022-12-18T01:57:20;7.25;;;6.03;;
22017;SDS011;11173;51.050;7.108;2022-12-18T02:07:39;9.88;;;7.78;;
22017;SDS011;11173;51.050;7.108;2022-12-18T02:17:48;8.18;;;6.60;;
22017;SDS011;11173;51.050;7.108;2022-12-18T02:27:52;10.15;;;7.22;;
22017;SDS011;11173;51.050;7.108;2022-12-18T02:37:54;8.57;;;7.20;;
22017;SDS011;11173;51.050;7.108;2022-12-18T02:47:56;7.95;;;6.25;;
22017;SDS011;11173;51.050;7.108;2022-12-18T03:08:46;6.72;;;5.85;;
22017;SDS011;11173;51.050;7.108;2022-12-18T03:18:52;5.80;;;5.30;;
22017;SDS011;11173;51.050;7.108;2022-12-18T03:28:59;7.03;;;6.32;;
22017;SDS011;11173;51.050;7.108;2022-12-18T03:39:04;7.10;;;5.75;;
22017;SDS011;11173;51.050;7.108;2022-12-18T03:49:09;9.40;;;6.10;;
22017;SDS011;11173;51.050;7.108;2022-12-18T03:59:14;5.47;;;5.07;;
22017;SDS011;11173;51.050;7.108;2022-12-18T04:09:17;6.80;;;6.10;;
22017;SDS011;11173;51.050;7.108;2022-12-18T04:19:19;6.57;;;5.72;;
22017;SDS011;11173;51.050;7.108;2022-12-18T04:29:19;6.78;;;5.72;;
22017;SDS011;11173;51.050;7.108;2022-12-18T04:39:19;7.15;;;6.15;;
22017;SDS011;11173;51.050;7.108;2022-12-18T04:49:20;6.40;;;5.78;;
22017;SDS011;11173;51.050;7.108;2022-12-18T04:59:20;7.35;;;6.03;;
22017;SDS011;11173;51.050;7.108;2022-12-18T05:09:21;6.65;;;5.95;;
22017;SDS011;11173;51.050;7.108;2022-12-18T05:19:21;6.95;;;6.25;;
22017;SDS011;11173;51.050;7.108;2022-12-18T05:29:21;5.95;;;5.35;;
22017;SDS011;11173;51.050;7.108;2022-12-18T05:39:22;7.63;;;6.15;;
22017;SDS011;11173;51.050;7.108;2022-12-18T05:49:22;7.10;;;6.40;;
22017;SDS011;11173;51.050;7.108;2022-12-18T05:59:23;6.47;;;5.78;;
22017;SDS011;11173;51.050;7.108;2022-12-18T06:09:23;7.20;;;6.13;;
22017;SDS011;11173;51.050;7.108;2022-12-18T06:19:23;7.50;;;6.40;;
22017;SDS011;11173;51.050;7.108;2022-12-18T06:29:24;9.35;;;6.90;;
22017;SDS011;11173;51.050;7.108;2022-12-18T06:39:24;10.05;;;7.40;;
22017;SDS011;11173;51.050;7.108;2022-12-18T06:49:27;8.50;;;6.57;;
22017;SDS011;11173;51.050;7.108;2022-12-18T06:59:28;12.48;;;7.43;;
22017;SDS011;11173;51.050;7.108;2022-12-18T07:09:28;11.23;;;7.13;;
22017;SDS011;11173;51.050;7.108;2022-12-18T07:19:29;6.93;;;6.22;;
22017;SDS011;11173;51.050;7.108;2022-12-18T07:29:29;10.93;;;7.43;;
22017;SDS011;11173;51.050;7.108;2022-12-18T07:39:29;8.38;;;6.93;;
22017;SDS011;11173;51.050;7.108;2022-12-18T07:49:30;9.05;;;6.90;;
22017;SDS011;11173;51.050;7.108;2022-12-18T07:59:30;9.95;;;7.22;;
22017;SDS011;11173;51.050;7.108;2022-12-18T08:09:31;6.10;;;5.50;;
22017;SDS011;11173;51.050;7.108;2022-12-18T08:19:31;7.10;;;6.40;;
22017;SDS011;11173;51.050;7.108;2022-12-18T08:29:31;9.43;;;6.85;;
22017;SDS011;11173;51.050;7.108;2022-12-18T08:39:32;8.35;;;7.18;;
22017;SDS011;11173;51.050;7.108;2022-12-18T08:49:32;7.50;;;6.13;;
22017;SDS011;11173;51.050;7.108;2022-12-18T08:59:33;7.10;;;5.63;;
22017;SDS011;11173;51.050;7.108;2022-12-18T09:09:34;6.82;;;5.88;;
22017;SDS011;11173;51.050;7.108;2022-12-18T09:19:34;6.85;;;6.15;;
22017;SDS011;11173;51.050;7.108;2022-12-18T09:29:34;7.60;;;5.38;;
22017;SDS011;11173;51.050;7.108;2022-12-18T09:39:35;4.97;;;4.57;;
22017;SDS011;11173;51.050;7.108;2022-12-18T09:49:38;6.32;;;5.25;;
22017;SDS011;11173;51.050;7.108;2022-12-18T09:59:41;7.63;;;5.35;;
22017;SDS011;11173;51.050;7.108;2022-12-18T10:09:52;7.75;;;5.53;;
22017;SDS011;11173;51.050;7.108;2022-12-18T10:19:59;6.22;;;5.63;;
22017;SDS011;11173;51.050;7.108;2022-12-18T10:30:04;5.97;;;5.10;;
22017;SDS011;11173;51.050;7.108;2022-12-18T10:40:13;4.45;;;4.05;;
22017;SDS011;11173;51.050;7.108;2022-12-18T10:50:19;5.50;;;4.00;;
22017;SDS011;11173;51.050;7.108;2022-12-18T11:00:27;4.22;;;3.92;;
22017;SDS011;11173;51.050;7.108;2022-12-18T11:10:33;4.43;;;4.03;;
22017;SDS011;11173;51.050;7.108;2022-12-18T11:20:37;4.18;;;3.78;;
22017;SDS011;11173;51.050;7.108;2022-12-18T11:30:39;5.20;;;4.60;;
22017;SDS011;11173;51.050;7.108;2022-12-18T11:40:40;5.32;;;4.07;;
22017;SDS011;11173;51.050;7.108;2022-12-18T12:21:40;9.50;;;7.28;;
22017;SDS011;11173;51.050;7.108;2022-12-18T12:42:23;5.38;;;4.85;;
22017;SDS011;11173;51.050;7.108;2022-12-18T12:52:52;5.32;;;4.60;;
22017;SDS011;11173;51.050;7.108;2022-12-18T13:02:59;8.25;;;6.72;;
22017;SDS011;11173;51.050;7.108;2022-12-18T13:13:07;13.60;;;8.43;;
22017;SDS011;11173;51.050;7.108;2022-12-18T13:43:27;13.18;;;9.65;;
22017;SDS011;11173;51.050;7.108;2022-12-18T13:53:36;14.52;;;10.38;;
22017;SDS011;11173;51.050;7.108;2022-12-18T14:14:32;19.15;;;11.32;;
22017;SDS011;11173;51.050;7.108;2022-12-18T14:24:33;12.02;;;9.23;;
22017;SDS011;11173;51.050;7.108;2022-12-18T14:34:33;13.20;;;8.73;;
22017;SDS011;11173;51.050;7.108;2022-12-18T14:44:34;15.50;;;10.77;;
22017;SDS011;11173;51.050;7.108;2022-12-18T14:54:34;12.73;;;8.88;;
22017;SDS011;11173;51.050;7.108;2022-12-18T15:04:38;20.90;;;13.05;;
22017;SDS011;11173;51.050;7.108;2022-12-18T15:14:41;16.33;;;11.73;;
22017;SDS011;11173;51.050;7.108;2022-12-18T15:24:41;20.92;;;13.60;;
22017;SDS011;11173;51.050;7.108;2022-12-18T15:34:42;16.83;;;11.45;;
22017;SDS011;11173;51.050;7.108;2022-12-18T15:44:43;15.80;;;10.23;;
22017;SDS011;11173;51.050;7.108;2022-12-18T15:54:43;15.45;;;10.10;;
22017;SDS011;11173;51.050;7.108;2022-12-18T16:05:02;28.17;;;15.02;;
22017;SDS011;11173;51.050;7.108;2022-12-18T16:15:03;17.35;;;11.93;;
22017;SDS011;11173;51.050;7.108;2022-12-18T16:25:05;20.13;;;12.32;;
22017;SDS011;11173;51.050;7.108;2022-12-18T16:35:05;18.00;;;11.63;;
22017;SDS011;11173;51.050;7.108;2022-12-18T16:45:10;16.05;;;11.05;;
22017;SDS011;11173;51.050;7.108;2022-12-18T16:55:13;15.48;;;10.68;;
22017;SDS011;11173;51.050;7.108;2022-12-18T17:05:13;18.60;;;12.77;;
22017;SDS011;11173;51.050;7.108;2022-12-18T17:15:13;21.83;;;13.65;;
22017;SDS011;11173;51.050;7.108;2022-12-18T17:25:14;26.75;;;15.70;;
22017;SDS011;11173;51.050;7.108;2022-12-18T17:35:14;15.55;;;10.65;;
22017;SDS011;11173;51.050;7.108;2022-12-18T17:45:15;19.95;;;12.38;;
22017;SDS011;11173;51.050;7.108;2022-12-18T17:55:15;21.00;;;13.05;;
22017;SDS011;11173;51.050;7.108;2022-12-18T18:05:15;20.30;;;11.65;;
22017;SDS011;11173;51.050;7.108;2022-12-18T18:15:16;19.65;;;11.90;;
22017;SDS011;11173;51.050;7.108;2022-12-18T18:25:17;29.17;;;16.20;;
22017;SDS011;11173;51.050;7.108;2022-12-18T18:35:18;18.80;;;11.32;;
22017;SDS011;11173;51.050;7.108;2022-12-18T18:45:18;18.15;;;11.18;;
22017;SDS011;11173;51.050;7.108;2022-12-18T18:55:18;19.83;;;12.32;;
22017;SDS011;11173;51.050;7.108;2022-12-18T19:05:19;24.38;;;15.10;;
22017;SDS011;11173;51.050;7.108;2022-12-18T19:15:21;23.73;;;13.88;;
22017;SDS011;11173;51.050;7.108;2022-12-18T19:25:22;21.98;;;13.40;;
22017;SDS011;11173;51.050;7.108;2022-12-18T19:35:27;28.73;;;15.82;;
22017;SDS011;11173;51.050;7.108;2022-12-18T19:45:28;28.27;;;16.55;;
22017;SDS011;11173;51.050;7.108;2022-12-18T19:55:28;22.65;;;13.60;;
22017;SDS011;11173;51.050;7.108;2022-12-18T20:05:29;25.00;;;15.85;;
22017;SDS011;11173;51.050;7.108;2022-12-18T20:15:29;33.33;;;18.70;;
22017;SDS011;11173;51.050;7.108;2022-12-18T20:25:30;33.65;;;17.77;;
22017;SDS011;11173;51.050;7.108;2022-12-18T20:35:31;23.95;;;15.10;;
22017;SDS011;11173;51.050;7.108;2022-12-18T20:45:32;27.08;;;16.00;;
22017;SDS011;11173;51.050;7.108;2022-12-18T20:55:32;34.75;;;18.73;;
22017;SDS011;11173;51.050;7.108;2022-12-18T21:05:33;33.03;;;17.92;;
22017;SDS011;11173;51.050;7.108;2022-12-18T21:15:33;26.25;;;16.30;;
22017;SDS011;11173;51.050;7.108;2022-12-18T21:25:34;25.27;;;15.02;;
22017;SDS011;11173;51.050;7.108;2022-12-18T21:35:35;31.08;;;17.52;;
22017;SDS011;11173;51.050;7.108;2022-12-18T21:45:35;24.58;;;15.60;;
22017;SDS011;11173;51.050;7.108;2022-12-18T21:55:36;33.58;;;18.05;;
22017;SDS011;11173;51.050;7.108;2022-12-18T22:05:36;22.40;;;14.43;;
22017;SDS011;11173;51.050;7.108;2022-12-18T22:15:37;22.55;;;13.23;;
22017;SDS011;11173;51.050;7.108;2022-12-18T22:25:37;34.33;;;19.92;;
22017;SDS011;11173;51.050;7.108;2022-12-18T22:35:38;26.15;;;15.52;;
22017;SDS011;11173;51.050;7.108;2022-12-18T22:45:38;34.53;;;17.75;;
22017;SDS011;11173;51.050;7.108;2022-12-18T22:55:38;32.70;;;18.27;;
22017;SDS011;11173;51.050;7.108;2022-12-18T23:05:39;30.25;;;17.13;;
22017;SDS011;11173;51.050;7.108;2022-12-18T23:15:40;23.38;;;14.10;;
22017;SDS011;11173;51.050;7.108;2022-12-18T23:25:41;25.58;;;15.25;;
22017;SDS011;11173;51.050;7.108;2022-12-18T23:35:41;30.73;;;17.65;;
22017;SDS011;11173;51.050;7.108;2022-12-18T23:45:42;36.35;;;19.90;;
22017;SDS011;11173;51.050;7.108;2022-12-18T23:55:43;26.10;;;15.35;;
